sensor_id;sensor_type;location;lat;lon;timestamp;P1;durP1;ratioP1;P2;durP2;ratioP2
19225;SDS011;9747;48.536;12.522;2023-02-14T00:02:05;2.90;;;2.80;;
19225;SDS011;9747;48.536;12.522;2023-02-14T00:04:33;2.72;;;2.63;;
19225;SDS011;9747;48.536;12.522;2023-02-14T00:07:03;2.83;;;2.72;;
19225;SDS011;9747;48.536;12.522;2023-02-14T00:09:31;2.78;;;2.67;;
19225;SDS011;9747;48.536;12.522;2023-02-14T00:11:58;2.50;;;2.40;;
19225;SDS011;9747;48.536;12.522;2023-02-14T00:14:26;2.13;;;2.03;;
19225;SDS011;9747;48.536;12.522;2023-02-14T00:17:11;2.50;;;2.40;;
19225;SDS011;9747;48.536;12.522;2023-02-14T00:19:38;2.40;;;2.30;;
19225;SDS011;9747;48.536;12.522;2023-02-14T00:22:07;2.45;;;2.35;;
19225;SDS011;9747;48.536;12.522;2023-02-14T00:24:34;2.42;;;2.33;;
19225;SDS011;9747;48.536;12.522;2023-02-14T00:27:02;2.60;;;2.50;;
19225;SDS011;9747;48.536;12.522;2023-02-14T00:29:30;2.80;;;2.70;;
19225;SDS011;9747;48.536;12.522;2023-02-14T00:32:00;2.42;;;2.33;;
19225;SDS011;9747;48.536;12.522;2023-02-14T00:34:28;2.78;;;2.58;;
19225;SDS011;9747;48.536;12.522;2023-02-14T00:36:57;2.38;;;2.28;;
19225;SDS011;9747;48.536;12.522;2023-02-14T00:39:26;2.30;;;2.20;;
19225;SDS011;9747;48.536;12.522;2023-02-14T00:41:53;2.72;;;2.53;;
19225;SDS011;9747;48.536;12.522;2023-02-14T00:44:21;2.60;;;2.50;;
19225;SDS011;9747;48.536;12.522;2023-02-14T00:46:49;2.50;;;2.40;;
19225;SDS011;9747;48.536;12.522;2023-02-14T00:49:16;2.55;;;2.45;;
19225;SDS011;9747;48.536;12.522;2023-02-14T00:51:44;2.60;;;2.50;;
19225;SDS011;9747;48.536;12.522;2023-02-14T00:54:11;2.58;;;2.47;;
19225;SDS011;9747;48.536;12.522;2023-02-14T00:56:40;2.50;;;2.40;;
19225;SDS011;9747;48.536;12.522;2023-02-14T00:59:08;2.50;;;2.40;;
19225;SDS011;9747;48.536;12.522;2023-02-14T01:01:35;2.60;;;2.50;;
19225;SDS011;9747;48.536;12.522;2023-02-14T01:04:03;2.22;;;2.13;;
19225;SDS011;9747;48.536;12.522;2023-02-14T01:06:31;2.38;;;2.28;;
19225;SDS011;9747;48.536;12.522;2023-02-14T01:08:59;2.38;;;2.28;;
19225;SDS011;9747;48.536;12.522;2023-02-14T01:11:26;2.35;;;2.25;;
19225;SDS011;9747;48.536;12.522;2023-02-14T01:13:55;2.50;;;2.40;;
19225;SDS011;9747;48.536;12.522;2023-02-14T01:16:24;2.47;;;2.38;;
19225;SDS011;9747;48.536;12.522;2023-02-14T01:18:53;2.40;;;2.30;;
19225;SDS011;9747;48.536;12.522;2023-02-14T01:21:22;2.45;;;2.35;;
19225;SDS011;9747;48.536;12.522;2023-02-14T01:23:54;2.45;;;2.35;;
19225;SDS011;9747;48.536;12.522;2023-02-14T01:26:24;2.53;;;2.40;;
19225;SDS011;9747;48.536;12.522;2023-02-14T01:28:54;2.50;;;2.40;;
19225;SDS011;9747;48.536;12.522;2023-02-14T01:31:24;2.53;;;2.42;;
19225;SDS011;9747;48.536;12.522;2023-02-14T01:33:55;2.40;;;2.30;;
19225;SDS011;9747;48.536;12.522;2023-02-14T01:36:24;2.30;;;2.20;;
19225;SDS011;9747;48.536;12.522;2023-02-14T01:38:55;2.30;;;2.20;;
19225;SDS011;9747;48.536;12.522;2023-02-14T01:41:24;2.15;;;2.05;;
19225;SDS011;9747;48.536;12.522;2023-02-14T01:43:56;2.55;;;2.40;;
19225;SDS011;9747;48.536;12.522;2023-02-14T01:46:26;2.55;;;2.38;;
19225;SDS011;9747;48.536;12.522;2023-02-14T01:48:57;2.30;;;2.20;;
19225;SDS011;9747;48.536;12.522;2023-02-14T01:51:28;2.47;;;2.38;;
19225;SDS011;9747;48.536;12.522;2023-02-14T01:53:56;2.30;;;2.20;;
19225;SDS011;9747;48.536;12.522;2023-02-14T01:56:25;2.60;;;2.50;;
19225;SDS011;9747;48.536;12.522;2023-02-14T01:58:57;2.53;;;2.42;;
19225;SDS011;9747;48.536;12.522;2023-02-14T02:01:26;2.65;;;2.55;;
19225;SDS011;9747;48.536;12.522;2023-02-14T02:03:56;2.50;;;2.40;;
19225;SDS011;9747;48.536;12.522;2023-02-14T02:06:29;2.80;;;2.60;;
19225;SDS011;9747;48.536;12.522;2023-02-14T02:09:01;2.47;;;2.38;;
19225;SDS011;9747;48.536;12.522;2023-02-14T02:11:35;2.20;;;2.10;;
19225;SDS011;9747;48.536;12.522;2023-02-14T02:14:04;2.28;;;2.17;;
19225;SDS011;9747;48.536;12.522;2023-02-14T02:16:43;2.50;;;2.30;;
19225;SDS011;9747;48.536;12.522;2023-02-14T02:19:53;2.33;;;2.22;;
19225;SDS011;9747;48.536;12.522;2023-02-14T02:23:03;2.38;;;2.28;;
19225;SDS011;9747;48.536;12.522;2023-02-14T02:39:27;2.45;;;2.35;;
19225;SDS011;9747;48.536;12.522;2023-02-14T02:42:04;2.22;;;2.13;;
19225;SDS011;9747;48.536;12.522;2023-02-14T02:44:40;2.67;;;2.53;;
19225;SDS011;9747;48.536;12.522;2023-02-14T02:47:18;2.53;;;2.42;;
19225;SDS011;9747;48.536;12.522;2023-02-14T02:49:52;2.60;;;2.50;;
19225;SDS011;9747;48.536;12.522;2023-02-14T02:52:46;2.45;;;2.35;;
19225;SDS011;9747;48.536;12.522;2023-02-14T02:55:36;2.60;;;2.40;;
19225;SDS011;9747;48.536;12.522;2023-02-14T02:58:29;2.33;;;2.22;;
19225;SDS011;9747;48.536;12.522;2023-02-14T03:01:00;2.60;;;2.50;;
19225;SDS011;9747;48.536;12.522;2023-02-14T03:03:32;2.60;;;2.50;;
19225;SDS011;9747;48.536;12.522;2023-02-14T03:06:19;2.80;;;2.60;;
19225;SDS011;9747;48.536;12.522;2023-02-14T03:08:48;2.65;;;2.45;;
19225;SDS011;9747;48.536;12.522;2023-02-14T03:11:16;3.08;;;2.88;;
19225;SDS011;9747;48.536;12.522;2023-02-14T03:13:51;3.00;;;2.80;;
19225;SDS011;9747;48.536;12.522;2023-02-14T03:16:32;2.90;;;2.70;;
19225;SDS011;9747;48.536;12.522;2023-02-14T03:19:14;2.83;;;2.63;;
19225;SDS011;9747;48.536;12.522;2023-02-14T03:22:26;2.47;;;2.38;;
19225;SDS011;9747;48.536;12.522;2023-02-14T03:25:09;2.60;;;2.50;;
19225;SDS011;9747;48.536;12.522;2023-02-14T03:27:56;2.65;;;2.55;;
19225;SDS011;9747;48.536;12.522;2023-02-14T03:30:31;2.50;;;2.40;;
19225;SDS011;9747;48.536;12.522;2023-02-14T03:33:10;2.50;;;2.40;;
19225;SDS011;9747;48.536;12.522;2023-02-14T03:35:44;2.50;;;2.38;;
19225;SDS011;9747;48.536;12.522;2023-02-14T03:38:18;2.78;;;2.60;;
19225;SDS011;9747;48.536;12.522;2023-02-14T03:40:50;3.08;;;2.88;;
19225;SDS011;9747;48.536;12.522;2023-02-14T03:43:23;2.90;;;2.70;;
19225;SDS011;9747;48.536;12.522;2023-02-14T03:45:53;3.15;;;2.95;;
19225;SDS011;9747;48.536;12.522;2023-02-14T03:48:26;3.28;;;3.08;;
19225;SDS011;9747;48.536;12.522;2023-02-14T03:50:55;3.00;;;2.80;;
19225;SDS011;9747;48.536;12.522;2023-02-14T03:53:24;3.20;;;3.00;;
19225;SDS011;9747;48.536;12.522;2023-02-14T03:55:57;3.22;;;3.03;;
19225;SDS011;9747;48.536;12.522;2023-02-14T03:58:29;2.90;;;2.70;;
19225;SDS011;9747;48.536;12.522;2023-02-14T04:01:02;2.88;;;2.67;;
19225;SDS011;9747;48.536;12.522;2023-02-14T04:03:32;2.92;;;2.78;;
19225;SDS011;9747;48.536;12.522;2023-02-14T04:06:01;3.10;;;2.90;;
19225;SDS011;9747;48.536;12.522;2023-02-14T04:08:28;2.95;;;2.75;;
19225;SDS011;9747;48.536;12.522;2023-02-14T04:10:59;3.10;;;2.90;;
19225;SDS011;9747;48.536;12.522;2023-02-14T04:13:27;3.60;;;3.30;;
19225;SDS011;9747;48.536;12.522;2023-02-14T04:15:55;3.03;;;2.83;;
19225;SDS011;9747;48.536;12.522;2023-02-14T04:18:23;3.30;;;3.10;;
19225;SDS011;9747;48.536;12.522;2023-02-14T04:21:07;3.00;;;2.80;;
19225;SDS011;9747;48.536;12.522;2023-02-14T04:23:35;3.00;;;2.80;;
19225;SDS011;9747;48.536;12.522;2023-02-14T04:26:04;2.90;;;2.70;;
19225;SDS011;9747;48.536;12.522;2023-02-14T04:28:31;3.22;;;2.92;;
19225;SDS011;9747;48.536;12.522;2023-02-14T04:30:59;3.10;;;2.90;;
19225;SDS011;9747;48.536;12.522;2023-02-14T04:33:28;3.30;;;3.05;;
19225;SDS011;9747;48.536;12.522;2023-02-14T04:35:56;3.15;;;2.95;;
19225;SDS011;9747;48.536;12.522;2023-02-14T04:38:23;3.05;;;2.85;;
19225;SDS011;9747;48.536;12.522;2023-02-14T04:40:51;3.15;;;2.95;;
19225;SDS011;9747;48.536;12.522;2023-02-14T04:43:19;3.17;;;2.97;;
19225;SDS011;9747;48.536;12.522;2023-02-14T04:45:47;3.13;;;2.92;;
19225;SDS011;9747;48.536;12.522;2023-02-14T04:48:14;3.30;;;3.10;;
19225;SDS011;9747;48.536;12.522;2023-02-14T04:50:42;3.30;;;3.10;;
19225;SDS011;9747;48.536;12.522;2023-02-14T04:53:09;3.00;;;2.80;;
19225;SDS011;9747;48.536;12.522;2023-02-14T04:55:37;3.20;;;3.00;;
19225;SDS011;9747;48.536;12.522;2023-02-14T04:58:04;3.10;;;2.90;;
19225;SDS011;9747;48.536;12.522;2023-02-14T05:00:33;3.60;;;3.30;;
19225;SDS011;9747;48.536;12.522;2023-02-14T05:03:00;3.60;;;3.40;;
19225;SDS011;9747;48.536;12.522;2023-02-14T05:05:28;3.58;;;3.25;;
19225;SDS011;9747;48.536;12.522;2023-02-14T05:07:55;3.40;;;3.20;;
19225;SDS011;9747;48.536;12.522;2023-02-14T05:10:23;3.35;;;3.10;;
19225;SDS011;9747;48.536;12.522;2023-02-14T05:12:50;3.20;;;3.00;;
19225;SDS011;9747;48.536;12.522;2023-02-14T05:15:17;3.22;;;3.03;;
19225;SDS011;9747;48.536;12.522;2023-02-14T05:17:46;3.92;;;3.63;;
19225;SDS011;9747;48.536;12.522;2023-02-14T05:20:14;3.80;;;3.50;;
19225;SDS011;9747;48.536;12.522;2023-02-14T05:22:41;4.43;;;3.53;;
19225;SDS011;9747;48.536;12.522;2023-02-14T05:25:09;3.72;;;3.42;;
19225;SDS011;9747;48.536;12.522;2023-02-14T05:27:36;4.50;;;3.25;;
19225;SDS011;9747;48.536;12.522;2023-02-14T05:30:04;9.98;;;3.85;;
19225;SDS011;9747;48.536;12.522;2023-02-14T05:32:34;7.85;;;3.95;;
19225;SDS011;9747;48.536;12.522;2023-02-14T05:35:02;7.57;;;3.78;;
19225;SDS011;9747;48.536;12.522;2023-02-14T05:37:30;5.82;;;3.47;;
19225;SDS011;9747;48.536;12.522;2023-02-14T05:39:58;4.80;;;3.30;;
19225;SDS011;9747;48.536;12.522;2023-02-14T05:42:25;6.68;;;3.33;;
19225;SDS011;9747;48.536;12.522;2023-02-14T05:44:53;3.35;;;3.03;;
19225;SDS011;9747;48.536;12.522;2023-02-14T05:47:20;5.68;;;3.20;;
19225;SDS011;9747;48.536;12.522;2023-02-14T05:49:47;7.65;;;3.28;;
19225;SDS011;9747;48.536;12.522;2023-02-14T05:52:16;4.75;;;3.00;;
19225;SDS011;9747;48.536;12.522;2023-02-14T05:54:44;5.63;;;3.30;;
19225;SDS011;9747;48.536;12.522;2023-02-14T05:57:11;5.72;;;3.15;;
19225;SDS011;9747;48.536;12.522;2023-02-14T05:59:38;3.53;;;3.22;;
19225;SDS011;9747;48.536;12.522;2023-02-14T06:02:06;4.15;;;3.30;;
19225;SDS011;9747;48.536;12.522;2023-02-14T06:04:33;4.00;;;3.10;;
19225;SDS011;9747;48.536;12.522;2023-02-14T06:07:01;3.97;;;3.10;;
19225;SDS011;9747;48.536;12.522;2023-02-14T06:09:30;3.17;;;2.70;;
19225;SDS011;9747;48.536;12.522;2023-02-14T06:11:57;3.25;;;2.90;;
19225;SDS011;9747;48.536;12.522;2023-02-14T06:14:24;3.30;;;3.10;;
19225;SDS011;9747;48.536;12.522;2023-02-14T06:16:52;5.55;;;2.95;;
19225;SDS011;9747;48.536;12.522;2023-02-14T06:19:20;3.22;;;2.58;;
19225;SDS011;9747;48.536;12.522;2023-02-14T06:21:47;3.30;;;2.50;;
19225;SDS011;9747;48.536;12.522;2023-02-14T06:24:15;3.47;;;2.88;;
19225;SDS011;9747;48.536;12.522;2023-02-14T06:26:44;3.72;;;2.95;;
19225;SDS011;9747;48.536;12.522;2023-02-14T06:29:11;4.32;;;2.83;;
19225;SDS011;9747;48.536;12.522;2023-02-14T06:31:38;2.67;;;2.55;;
19225;SDS011;9747;48.536;12.522;2023-02-14T06:34:06;3.00;;;2.70;;
19225;SDS011;9747;48.536;12.522;2023-02-14T06:36:33;2.60;;;2.40;;
19225;SDS011;9747;48.536;12.522;2023-02-14T06:39:01;3.88;;;2.90;;
19225;SDS011;9747;48.536;12.522;2023-02-14T06:41:28;2.67;;;2.30;;
19225;SDS011;9747;48.536;12.522;2023-02-14T06:43:57;3.22;;;2.70;;
19225;SDS011;9747;48.536;12.522;2023-02-14T06:46:25;2.75;;;2.55;;
19225;SDS011;9747;48.536;12.522;2023-02-14T06:48:52;3.10;;;2.90;;
19225;SDS011;9747;48.536;12.522;2023-02-14T06:51:20;5.10;;;2.65;;
19225;SDS011;9747;48.536;12.522;2023-02-14T06:53:47;3.03;;;2.65;;
19225;SDS011;9747;48.536;12.522;2023-02-14T06:56:14;2.78;;;2.55;;
19225;SDS011;9747;48.536;12.522;2023-02-14T06:58:42;3.00;;;2.50;;
19225;SDS011;9747;48.536;12.522;2023-02-14T07:01:11;4.65;;;4.10;;
19225;SDS011;9747;48.536;12.522;2023-02-14T07:03:38;6.28;;;4.93;;
19225;SDS011;9747;48.536;12.522;2023-02-14T07:06:05;3.83;;;3.53;;
19225;SDS011;9747;48.536;12.522;2023-02-14T07:08:33;4.05;;;3.45;;
19225;SDS011;9747;48.536;12.522;2023-02-14T07:11:00;3.50;;;2.90;;
19225;SDS011;9747;48.536;12.522;2023-02-14T07:13:28;3.03;;;2.72;;
19225;SDS011;9747;48.536;12.522;2023-02-14T07:15:55;3.33;;;3.03;;
19225;SDS011;9747;48.536;12.522;2023-02-14T07:18:24;3.47;;;2.63;;
19225;SDS011;9747;48.536;12.522;2023-02-14T07:20:52;3.40;;;2.70;;
19225;SDS011;9747;48.536;12.522;2023-02-14T07:23:19;3.10;;;2.90;;
19225;SDS011;9747;48.536;12.522;2023-02-14T07:25:47;2.80;;;2.60;;
19225;SDS011;9747;48.536;12.522;2023-02-14T07:28:14;2.35;;;2.22;;
19225;SDS011;9747;48.536;12.522;2023-02-14T07:30:41;2.80;;;2.60;;
19225;SDS011;9747;48.536;12.522;2023-02-14T07:33:09;2.53;;;2.33;;
19225;SDS011;9747;48.536;12.522;2023-02-14T07:35:38;2.92;;;2.30;;
19225;SDS011;9747;48.536;12.522;2023-02-14T07:38:05;2.92;;;2.20;;
19225;SDS011;9747;48.536;12.522;2023-02-14T07:40:33;2.50;;;2.30;;
19225;SDS011;9747;48.536;12.522;2023-02-14T07:43:00;3.05;;;2.10;;
19225;SDS011;9747;48.536;12.522;2023-02-14T07:45:27;5.93;;;2.78;;
19225;SDS011;9747;48.536;12.522;2023-02-14T07:47:55;5.28;;;2.70;;
19225;SDS011;9747;48.536;12.522;2023-02-14T07:50:26;2.65;;;2.33;;
19225;SDS011;9747;48.536;12.522;2023-02-14T07:52:55;2.65;;;2.40;;
19225;SDS011;9747;48.536;12.522;2023-02-14T07:55:23;2.92;;;2.30;;
19225;SDS011;9747;48.536;12.522;2023-02-14T07:57:50;2.30;;;2.20;;
19225;SDS011;9747;48.536;12.522;2023-02-14T08:00:18;2.53;;;2.15;;
19225;SDS011;9747;48.536;12.522;2023-02-14T08:02:47;2.30;;;2.20;;
19225;SDS011;9747;48.536;12.522;2023-02-14T08:05:14;2.85;;;2.28;;
19225;SDS011;9747;48.536;12.522;2023-02-14T08:07:42;3.55;;;2.03;;
19225;SDS011;9747;48.536;12.522;2023-02-14T08:10:13;2.13;;;2.03;;
19225;SDS011;9747;48.536;12.522;2023-02-14T08:12:40;2.13;;;2.03;;
19225;SDS011;9747;48.536;12.522;2023-02-14T08:15:26;1.90;;;1.80;;
19225;SDS011;9747;48.536;12.522;2023-02-14T08:18:13;2.65;;;1.90;;
19225;SDS011;9747;48.536;12.522;2023-02-14T08:20:41;2.47;;;1.95;;
19225;SDS011;9747;48.536;12.522;2023-02-14T08:23:09;2.10;;;1.90;;
19225;SDS011;9747;48.536;12.522;2023-02-14T08:25:39;2.10;;;2.00;;
19225;SDS011;9747;48.536;12.522;2023-02-14T08:28:06;2.58;;;2.10;;
19225;SDS011;9747;48.536;12.522;2023-02-14T08:30:34;2.00;;;1.90;;
19225;SDS011;9747;48.536;12.522;2023-02-14T08:33:03;2.05;;;1.95;;
19225;SDS011;9747;48.536;12.522;2023-02-14T08:35:30;1.73;;;1.63;;
19225;SDS011;9747;48.536;12.522;2023-02-14T08:37:58;1.63;;;1.63;;
19225;SDS011;9747;48.536;12.522;2023-02-14T08:40:25;1.90;;;1.80;;
19225;SDS011;9747;48.536;12.522;2023-02-14T08:42:54;2.35;;;2.15;;
19225;SDS011;9747;48.536;12.522;2023-02-14T08:45:22;2.03;;;1.92;;
19225;SDS011;9747;48.536;12.522;2023-02-14T08:47:49;2.30;;;2.20;;
19225;SDS011;9747;48.536;12.522;2023-02-14T08:50:17;2.58;;;2.10;;
19225;SDS011;9747;48.536;12.522;2023-02-14T08:52:45;2.20;;;2.10;;
19225;SDS011;9747;48.536;12.522;2023-02-14T08:55:12;2.00;;;1.90;;
19225;SDS011;9747;48.536;12.522;2023-02-14T08:57:40;2.20;;;2.00;;
19225;SDS011;9747;48.536;12.522;2023-02-14T09:00:09;1.95;;;1.85;;
19225;SDS011;9747;48.536;12.522;2023-02-14T09:02:37;2.00;;;1.90;;
19225;SDS011;9747;48.536;12.522;2023-02-14T09:05:05;1.90;;;1.80;;
19225;SDS011;9747;48.536;12.522;2023-02-14T09:07:34;2.20;;;2.00;;
19225;SDS011;9747;48.536;12.522;2023-02-14T09:10:02;1.92;;;1.83;;
19225;SDS011;9747;48.536;12.522;2023-02-14T09:12:30;2.05;;;1.95;;
19225;SDS011;9747;48.536;12.522;2023-02-14T09:14:58;1.80;;;1.70;;
19225;SDS011;9747;48.536;12.522;2023-02-14T09:17:26;2.25;;;1.98;;
19225;SDS011;9747;48.536;12.522;2023-02-14T09:19:54;1.92;;;1.83;;
19225;SDS011;9747;48.536;12.522;2023-02-14T09:22:22;3.42;;;1.77;;
19225;SDS011;9747;48.536;12.522;2023-02-14T09:24:49;2.03;;;1.88;;
19225;SDS011;9747;48.536;12.522;2023-02-14T09:27:17;1.90;;;1.80;;
19225;SDS011;9747;48.536;12.522;2023-02-14T09:29:44;2.25;;;1.77;;
19225;SDS011;9747;48.536;12.522;2023-02-14T09:32:12;2.75;;;1.90;;
19225;SDS011;9747;48.536;12.522;2023-02-14T09:34:41;2.70;;;1.90;;
19225;SDS011;9747;48.536;12.522;2023-02-14T09:37:09;2.75;;;1.85;;
19225;SDS011;9747;48.536;12.522;2023-02-14T09:39:37;2.03;;;1.90;;
19225;SDS011;9747;48.536;12.522;2023-02-14T09:45:18;1.90;;;1.80;;
19225;SDS011;9747;48.536;12.522;2023-02-14T09:47:49;1.63;;;1.63;;
19225;SDS011;9747;48.536;12.522;2023-02-14T09:52:51;1.88;;;1.77;;
19225;SDS011;9747;48.536;12.522;2023-02-14T09:55:22;2.00;;;1.88;;
19225;SDS011;9747;48.536;12.522;2023-02-14T09:57:58;2.45;;;1.77;;
19225;SDS011;9747;48.536;12.522;2023-02-14T10:00:33;7.88;;;6.72;;
19225;SDS011;9747;48.536;12.522;2023-02-14T10:03:09;7.35;;;5.15;;
19225;SDS011;9747;48.536;12.522;2023-02-14T10:06:00;3.20;;;2.88;;
19225;SDS011;9747;48.536;12.522;2023-02-14T10:08:37;3.10;;;2.85;;
19225;SDS011;9747;48.536;12.522;2023-02-14T10:11:14;2.72;;;2.53;;
19225;SDS011;9747;48.536;12.522;2023-02-14T10:13:46;5.13;;;2.83;;
19225;SDS011;9747;48.536;12.522;2023-02-14T10:16:17;2.60;;;2.15;;
19225;SDS011;9747;48.536;12.522;2023-02-14T10:18:51;3.53;;;2.63;;
19225;SDS011;9747;48.536;12.522;2023-02-14T10:21:24;2.75;;;2.55;;
19225;SDS011;9747;48.536;12.522;2023-02-14T10:23:55;5.30;;;2.42;;
19225;SDS011;9747;48.536;12.522;2023-02-14T10:26:29;3.20;;;2.67;;
19225;SDS011;9747;48.536;12.522;2023-02-14T10:29:01;5.28;;;2.55;;
19225;SDS011;9747;48.536;12.522;2023-02-14T10:31:33;5.95;;;2.60;;
19225;SDS011;9747;48.536;12.522;2023-02-14T10:34:04;4.43;;;2.58;;
19225;SDS011;9747;48.536;12.522;2023-02-14T10:36:42;3.63;;;2.70;;
19225;SDS011;9747;48.536;12.522;2023-02-14T10:39:22;7.43;;;2.70;;
19225;SDS011;9747;48.536;12.522;2023-02-14T10:42:11;14.07;;;6.75;;
19225;SDS011;9747;48.536;12.522;2023-02-14T10:44:47;6.40;;;3.80;;
19225;SDS011;9747;48.536;12.522;2023-02-14T10:47:23;6.05;;;2.90;;
19225;SDS011;9747;48.536;12.522;2023-02-14T10:50:00;5.07;;;3.40;;
19225;SDS011;9747;48.536;12.522;2023-02-14T10:52:36;6.45;;;3.65;;
19225;SDS011;9747;48.536;12.522;2023-02-14T10:55:10;5.57;;;3.05;;
19225;SDS011;9747;48.536;12.522;2023-02-14T10:57:40;4.32;;;2.92;;
19225;SDS011;9747;48.536;12.522;2023-02-14T11:00:15;6.95;;;2.80;;
19225;SDS011;9747;48.536;12.522;2023-02-14T11:02:46;5.75;;;3.22;;
19225;SDS011;9747;48.536;12.522;2023-02-14T11:05:22;3.92;;;3.00;;
19225;SDS011;9747;48.536;12.522;2023-02-14T11:07:54;8.75;;;2.88;;
19225;SDS011;9747;48.536;12.522;2023-02-14T11:10:24;4.55;;;2.75;;
19225;SDS011;9747;48.536;12.522;2023-02-14T11:12:55;4.65;;;2.83;;
19225;SDS011;9747;48.536;12.522;2023-02-14T11:15:23;7.20;;;2.95;;
19225;SDS011;9747;48.536;12.522;2023-02-14T11:18:07;3.45;;;2.60;;
19225;SDS011;9747;48.536;12.522;2023-02-14T11:20:41;5.85;;;3.08;;
19225;SDS011;9747;48.536;12.522;2023-02-14T11:23:20;8.00;;;5.53;;
19225;SDS011;9747;48.536;12.522;2023-02-14T11:25:49;4.50;;;3.80;;
19225;SDS011;9747;48.536;12.522;2023-02-14T11:28:20;4.85;;;3.97;;
19225;SDS011;9747;48.536;12.522;2023-02-14T11:30:48;4.65;;;4.18;;
19225;SDS011;9747;48.536;12.522;2023-02-14T11:33:24;6.82;;;3.60;;
19225;SDS011;9747;48.536;12.522;2023-02-14T11:35:59;5.45;;;3.95;;
19225;SDS011;9747;48.536;12.522;2023-02-14T11:38:30;4.10;;;3.40;;
19225;SDS011;9747;48.536;12.522;2023-02-14T11:41:00;3.65;;;3.20;;
19225;SDS011;9747;48.536;12.522;2023-02-14T11:43:29;4.43;;;3.53;;
19225;SDS011;9747;48.536;12.522;2023-02-14T11:46:06;3.72;;;3.42;;
19225;SDS011;9747;48.536;12.522;2023-02-14T11:48:52;4.15;;;3.40;;
19225;SDS011;9747;48.536;12.522;2023-02-14T11:51:27;5.38;;;3.10;;
19225;SDS011;9747;48.536;12.522;2023-02-14T11:53:59;3.33;;;3.03;;
19225;SDS011;9747;48.536;12.522;2023-02-14T11:56:44;3.05;;;2.85;;
19225;SDS011;9747;48.536;12.522;2023-02-14T11:59:20;3.72;;;3.20;;
19225;SDS011;9747;48.536;12.522;2023-02-14T12:01:55;2.80;;;2.60;;
19225;SDS011;9747;48.536;12.522;2023-02-14T12:04:30;2.95;;;2.72;;
19225;SDS011;9747;48.536;12.522;2023-02-14T12:07:15;2.83;;;2.63;;
19225;SDS011;9747;48.536;12.522;2023-02-14T12:09:47;4.05;;;2.60;;
19225;SDS011;9747;48.536;12.522;2023-02-14T12:12:34;2.80;;;2.60;;
19225;SDS011;9747;48.536;12.522;2023-02-14T12:15:20;2.65;;;2.35;;
19225;SDS011;9747;48.536;12.522;2023-02-14T12:17:52;2.50;;;2.30;;
19225;SDS011;9747;48.536;12.522;2023-02-14T12:20:44;2.60;;;2.40;;
19225;SDS011;9747;48.536;12.522;2023-02-14T12:23:19;5.55;;;5.05;;
19225;SDS011;9747;48.536;12.522;2023-02-14T12:25:53;5.93;;;5.32;;
19225;SDS011;9747;48.536;12.522;2023-02-14T12:28:27;14.18;;;9.93;;
19225;SDS011;9747;48.536;12.522;2023-02-14T12:31:06;40.72;;;25.85;;
19225;SDS011;9747;48.536;12.522;2023-02-14T12:33:36;88.80;;;53.22;;
19225;SDS011;9747;48.536;12.522;2023-02-14T12:36:07;84.57;;;50.88;;
19225;SDS011;9747;48.536;12.522;2023-02-14T12:38:44;88.15;;;53.33;;
19225;SDS011;9747;48.536;12.522;2023-02-14T12:41:22;85.45;;;52.15;;
19225;SDS011;9747;48.536;12.522;2023-02-14T12:44:00;77.20;;;47.35;;
19225;SDS011;9747;48.536;12.522;2023-02-14T12:46:45;80.63;;;49.33;;
19225;SDS011;9747;48.536;12.522;2023-02-14T12:49:29;75.95;;;47.35;;
19225;SDS011;9747;48.536;12.522;2023-02-14T12:52:32;68.47;;;45.28;;
19225;SDS011;9747;48.536;12.522;2023-02-14T12:55:28;64.68;;;41.83;;
19225;SDS011;9747;48.536;12.522;2023-02-14T12:58:11;67.55;;;43.15;;
19225;SDS011;9747;48.536;12.522;2023-02-14T13:00:51;64.10;;;40.45;;
19225;SDS011;9747;48.536;12.522;2023-02-14T13:03:35;62.28;;;39.88;;
19225;SDS011;9747;48.536;12.522;2023-02-14T13:06:16;54.58;;;36.40;;
19225;SDS011;9747;48.536;12.522;2023-02-14T13:08:58;55.33;;;37.85;;
19225;SDS011;9747;48.536;12.522;2023-02-14T13:11:38;54.03;;;36.75;;
19225;SDS011;9747;48.536;12.522;2023-02-14T13:14:23;57.13;;;39.42;;
19225;SDS011;9747;48.536;12.522;2023-02-14T13:17:02;50.05;;;34.88;;
19225;SDS011;9747;48.536;12.522;2023-02-14T13:19:40;49.15;;;34.63;;
19225;SDS011;9747;48.536;12.522;2023-02-14T13:22:13;55.22;;;40.35;;
19225;SDS011;9747;48.536;12.522;2023-02-14T13:24:45;47.72;;;34.03;;
19225;SDS011;9747;48.536;12.522;2023-02-14T13:27:16;50.38;;;40.35;;
19225;SDS011;9747;48.536;12.522;2023-02-14T13:29:49;62.28;;;51.10;;
19225;SDS011;9747;48.536;12.522;2023-02-14T13:32:18;54.10;;;46.63;;
19225;SDS011;9747;48.536;12.522;2023-02-14T13:34:50;59.85;;;48.55;;
19225;SDS011;9747;48.536;12.522;2023-02-14T13:37:18;51.55;;;43.03;;
19225;SDS011;9747;48.536;12.522;2023-02-14T13:39:48;55.42;;;46.05;;
19225;SDS011;9747;48.536;12.522;2023-02-14T13:48:30;44.22;;;38.20;;
19225;SDS011;9747;48.536;12.522;2023-02-14T13:50:58;42.88;;;34.35;;
19225;SDS011;9747;48.536;12.522;2023-02-14T13:53:34;38.90;;;34.38;;
19225;SDS011;9747;48.536;12.522;2023-02-14T13:56:28;40.30;;;34.15;;
19225;SDS011;9747;48.536;12.522;2023-02-14T13:59:00;40.45;;;34.20;;
19225;SDS011;9747;48.536;12.522;2023-02-14T14:01:33;36.20;;;31.70;;
19225;SDS011;9747;48.536;12.522;2023-02-14T14:04:06;36.17;;;32.08;;
19225;SDS011;9747;48.536;12.522;2023-02-14T14:07:21;34.58;;;30.00;;
19225;SDS011;9747;48.536;12.522;2023-02-14T14:09:55;33.25;;;28.83;;
19225;SDS011;9747;48.536;12.522;2023-02-14T14:12:36;31.33;;;27.80;;
19225;SDS011;9747;48.536;12.522;2023-02-14T14:15:09;31.10;;;27.08;;
19225;SDS011;9747;48.536;12.522;2023-02-14T14:17:44;30.70;;;25.83;;
19225;SDS011;9747;48.536;12.522;2023-02-14T14:23:29;25.20;;;22.52;;
19225;SDS011;9747;48.536;12.522;2023-02-14T14:26:01;23.90;;;21.30;;
19225;SDS011;9747;48.536;12.522;2023-02-14T14:28:45;24.90;;;21.30;;
19225;SDS011;9747;48.536;12.522;2023-02-14T14:31:12;23.45;;;20.75;;
19225;SDS011;9747;48.536;12.522;2023-02-14T14:33:41;23.15;;;20.67;;
19225;SDS011;9747;48.536;12.522;2023-02-14T14:36:09;21.40;;;19.10;;
19225;SDS011;9747;48.536;12.522;2023-02-14T14:38:49;22.38;;;19.20;;
19225;SDS011;9747;48.536;12.522;2023-02-14T14:41:18;24.83;;;19.95;;
19225;SDS011;9747;48.536;12.522;2023-02-14T14:43:46;20.08;;;17.77;;
19225;SDS011;9747;48.536;12.522;2023-02-14T14:46:14;21.02;;;17.45;;
19225;SDS011;9747;48.536;12.522;2023-02-14T14:48:44;19.60;;;16.92;;
19225;SDS011;9747;48.536;12.522;2023-02-14T14:51:16;17.00;;;14.82;;
19225;SDS011;9747;48.536;12.522;2023-02-14T14:53:49;18.08;;;15.65;;
19225;SDS011;9747;48.536;12.522;2023-02-14T14:56:20;16.77;;;14.95;;
19225;SDS011;9747;48.536;12.522;2023-02-14T14:58:49;16.00;;;14.30;;
19225;SDS011;9747;48.536;12.522;2023-02-14T15:01:27;18.02;;;14.95;;
19225;SDS011;9747;48.536;12.522;2023-02-14T15:04:09;15.05;;;13.48;;
19225;SDS011;9747;48.536;12.522;2023-02-14T15:06:41;14.32;;;12.50;;
19225;SDS011;9747;48.536;12.522;2023-02-14T15:09:12;13.93;;;12.63;;
19225;SDS011;9747;48.536;12.522;2023-02-14T15:11:43;14.77;;;12.85;;
19225;SDS011;9747;48.536;12.522;2023-02-14T15:14:32;14.20;;;12.70;;
19225;SDS011;9747;48.536;12.522;2023-02-14T15:17:03;14.32;;;12.80;;
19225;SDS011;9747;48.536;12.522;2023-02-14T15:19:35;13.40;;;12.00;;
19225;SDS011;9747;48.536;12.522;2023-02-14T15:22:13;12.85;;;11.52;;
19225;SDS011;9747;48.536;12.522;2023-02-14T15:24:45;12.43;;;11.13;;
19225;SDS011;9747;48.536;12.522;2023-02-14T15:27:13;12.18;;;10.60;;
19225;SDS011;9747;48.536;12.522;2023-02-14T15:29:51;13.13;;;11.82;;
19225;SDS011;9747;48.536;12.522;2023-02-14T15:32:22;11.90;;;10.65;;
19225;SDS011;9747;48.536;12.522;2023-02-14T15:34:51;11.93;;;10.73;;
19225;SDS011;9747;48.536;12.522;2023-02-14T15:37:19;11.07;;;9.98;;
19225;SDS011;9747;48.536;12.522;2023-02-14T15:39:48;20.85;;;17.38;;
19225;SDS011;9747;48.536;12.522;2023-02-14T15:42:21;14.63;;;11.88;;